Time;durP1;ratioP1;P1;durP2;ratioP2;P2;SDS_P1;SDS_P2;PMS_P1;PMS_P2;Temp;Humidity;BMP_temperature;BMP_pressure;BME280_temperature;BME280_humidity;BME280_pressure;Samples;Min_cycle;Max_cycle;Signal;HPM_P1;HPM_P2
2021/11/14 00:00:42;;;;;;;0.52;0.28;;;21.60;41.30;;;;;;5082454;28;20524;-70
2021/11/14 00:03:12;;;;;;;1.25;0.40;;;21.50;42.00;;;;;;5062705;28;20074;-69
2021/11/14 00:05:41;;;;;;;1.08;0.38;;;21.00;41.50;;;;;;5077705;28;20056;-72
2021/11/14 00:08:10;;;;;;;1.80;0.40;;;20.80;42.20;;;;;;5082886;28;20785;-70
2021/11/14 00:10:39;;;;;;;1.30;0.30;;;20.70;44.40;;;;;;5080508;28;20063;-72
2021/11/14 00:13:06;;;;;;;1.95;0.45;;;21.20;43.80;;;;;;5081143;28;20025;-72
2021/11/14 00:15:33;;;;;;;1.70;0.40;;;21.80;42.60;;;;;;5081082;28;20447;-72
2021/11/14 00:18:00;;;;;;;1.25;0.43;;;22.00;41.90;;;;;;5079040;28;20024;-69
2021/11/14 00:20:28;;;;;;;1.08;0.93;;;22.20;42.40;;;;;;5081376;28;21337;-74
2021/11/14 00:22:55;;;;;;;4.30;2.05;;;22.30;41.80;;;;;;5079664;28;20027;-73
2021/11/14 00:25:22;;;;;;;2.65;1.20;;;22.40;40.20;;;;;;5084129;28;20082;-72
2021/11/14 00:27:51;;;;;;;2.45;1.00;;;22.10;40.90;;;;;;5059465;28;20383;-71
2021/11/14 00:30:20;;;;;;;1.73;1.40;;;22.00;41.10;;;;;;5058064;28;20025;-69
2021/11/14 00:32:49;;;;;;;1.50;0.75;;;22.70;40.40;;;;;;5082178;28;20027;-71
2021/11/14 00:35:19;;;;;;;4.72;3.20;;;23.00;38.00;;;;;;5080123;28;20075;-72
2021/11/14 00:37:47;;;;;;;3.40;0.85;;;22.70;39.50;;;;;;5081716;28;20047;-70
2021/11/14 00:40:18;;;;;;;0.55;0.40;;;22.60;40.30;;;;;;5058831;28;20037;-71
2021/11/14 00:42:45;;;;;;;1.70;0.50;;;22.60;40.00;;;;;;5079909;28;20067;-69
2021/11/14 00:45:13;;;;;;;0.77;0.40;;;22.50;40.40;;;;;;5081430;28;20105;-71
2021/11/14 00:47:41;;;;;;;0.60;0.28;;;23.20;40.10;;;;;;5079244;28;20090;-69
2021/11/14 00:50:11;;;;;;;1.65;0.45;;;23.80;40.00;;;;;;5077425;28;20033;-71
2021/11/14 00:52:40;;;;;;;1.50;0.82;;;23.90;39.70;;;;;;5078198;28;20109;-73
2021/11/14 00:55:09;;;;;;;3.05;1.50;;;23.10;38.70;;;;;;5077045;28;20041;-70
2021/11/14 00:57:36;;;;;;;0.98;0.40;;;23.10;40.50;;;;;;5081495;28;20515;-71
2021/11/14 01:00:09;;;;;;;1.15;0.30;;;23.00;39.40;;;;;;4726189;28;10000212;-69
2021/11/14 01:02:37;;;;;;;2.95;0.60;;;22.90;39.60;;;;;;5075813;28;20021;-71
2021/11/14 01:05:07;;;;;;;3.47;0.90;;;22.80;39.90;;;;;;5074139;28;20064;-69
2021/11/14 01:07:35;;;;;;;1.05;0.70;;;23.20;41.50;;;;;;5076062;28;20402;-70
2021/11/14 01:10:03;;;;;;;0.57;0.30;;;24.00;39.40;;;;;;5075552;28;20364;-70
2021/11/14 01:12:30;;;;;;;0.88;0.30;;;24.40;38.00;;;;;;5076015;28;20021;-70
2021/11/14 01:14:57;;;;;;;0.38;0.30;;;23.70;37.60;;;;;;5076350;28;20426;-70
2021/11/14 01:17:24;;;;;;;0.65;0.30;;;22.80;38.70;;;;;;5074860;28;20023;-74
2021/11/14 01:19:51;;;;;;;1.00;0.30;;;22.80;39.40;;;;;;5078318;28;20089;-71
2021/11/14 01:22:18;;;;;;;0.98;0.32;;;23.40;40.60;;;;;;5072565;28;20025;-70
2021/11/14 01:24:45;;;;;;;0.43;0.22;;;23.90;38.80;;;;;;5077765;28;20020;-70
2021/11/14 01:27:14;;;;;;;0.60;0.25;;;24.00;37.70;;;;;;5073088;28;20561;-69
2021/11/14 01:29:42;;;;;;;1.10;0.43;;;24.20;37.80;;;;;;5079574;28;20592;-68
2021/11/14 01:32:09;;;;;;;2.72;0.40;;;24.40;39.40;;;;;;5079029;28;20024;-71
2021/11/14 01:34:37;;;;;;;0.32;0.25;;;24.30;38.20;;;;;;5078256;28;20031;-70
2021/11/14 01:37:04;;;;;;;0.63;0.30;;;23.90;38.30;;;;;;5073595;28;20077;-71
2021/11/14 01:39:32;;;;;;;0.55;0.30;;;23.60;38.30;;;;;;5080939;28;20111;-69
2021/11/14 01:42:00;;;;;;;0.22;0.20;;;23.60;38.40;;;;;;5071548;28;20283;-70
2021/11/14 01:44:27;;;;;;;0.63;0.30;;;23.60;39.10;;;;;;5073093;28;20106;-69
2021/11/14 01:46:54;;;;;;;0.98;0.22;;;23.00;38.70;;;;;;5076553;28;20149;-68
2021/11/14 01:49:21;;;;;;;1.45;0.40;;;22.70;39.80;;;;;;5076180;28;20542;-70
2021/11/14 01:51:49;;;;;;;5.18;0.47;;;22.70;40.50;;;;;;5075185;28;20375;-71
2021/11/14 01:54:19;;;;;;;3.03;0.52;;;22.30;39.60;;;;;;5075971;28;20132;-69
2021/11/14 01:56:48;;;;;;;0.20;0.20;;;22.10;39.90;;;;;;5077730;28;20035;-70
2021/11/14 01:59:15;;;;;;;1.00;0.30;;;22.30;39.80;;;;;;4728196;28;10000378;-69
2021/11/14 02:01:42;;;;;;;0.80;0.38;;;22.30;39.30;;;;;;5073915;28;20042;-71
2021/11/14 02:04:09;;;;;;;0.25;0.20;;;22.70;41.30;;;;;;5073197;28;20078;-68
2021/11/14 02:06:40;;;;;;;1.27;0.55;;;22.80;40.20;;;;;;5075522;28;20028;-68
2021/11/14 02:09:07;;;;;;;0.35;0.35;;;22.80;40.10;;;;;;5077479;28;20107;-68
2021/11/14 02:11:35;;;;;;;1.13;0.45;;;23.00;38.40;;;;;;5076067;28;20020;-68
2021/11/14 02:14:02;;;;;;;3.90;0.75;;;23.10;38.80;;;;;;5074431;28;20012;-68
2021/11/14 02:16:30;;;;;;;1.25;0.43;;;22.80;40.70;;;;;;5074348;28;20058;-68
2021/11/14 02:18:57;;;;;;;0.57;0.35;;;22.70;40.10;;;;;;5054930;28;20302;-68
2021/11/14 02:21:24;;;;;;;1.10;0.60;;;22.30;39.90;;;;;;5076933;28;20032;-71
2021/11/14 02:23:52;;;;;;;0.60;0.30;;;22.10;39.10;;;;;;5073976;28;20028;-71
2021/11/14 02:26:22;;;;;;;2.60;0.77;;;22.40;39.20;;;;;;5078643;28;20025;-70
2021/11/14 02:28:51;;;;;;;1.52;0.47;;;22.10;40.30;;;;;;5073807;28;20335;-70
2021/11/14 02:31:19;;;;;;;0.80;0.50;;;21.90;40.30;;;;;;5077807;28;20121;-68
2021/11/14 02:33:46;;;;;;;0.43;0.30;;;22.00;40.30;;;;;;5081586;28;20017;-66
2021/11/14 02:36:13;;;;;;;2.55;1.10;;;21.90;39.70;;;;;;5080689;28;20108;-69
2021/11/14 02:38:41;;;;;;;3.38;0.55;;;21.80;40.40;;;;;;5079758;28;20040;-67
2021/11/14 02:41:11;;;;;;;1.30;0.50;;;21.70;40.30;;;;;;5081770;28;20024;-70
2021/11/14 02:43:40;;;;;;;2.33;0.52;;;21.60;41.10;;;;;;5079044;28;20043;-70
2021/11/14 02:46:08;;;;;;;1.40;0.60;;;21.70;41.70;;;;;;5076807;28;20039;-72
2021/11/14 02:48:35;;;;;;;0.90;0.50;;;22.10;39.60;;;;;;5080212;28;20012;-72
2021/11/14 02:51:06;;;;;;;3.17;0.57;;;21.90;40.70;;;;;;5081659;28;20048;-70
2021/11/14 02:53:33;;;;;;;1.10;0.60;;;21.70;41.30;;;;;;5078317;28;20055;-73
2021/11/14 02:56:00;;;;;;;1.27;0.85;;;21.70;40.90;;;;;;5081561;28;20421;-66
2021/11/14 02:58:28;;;;;;;3.25;1.10;;;21.80;42.30;;;;;;5083262;28;20383;-68
2021/11/14 03:01:02;;;;;;;1.40;0.57;;;21.80;41.30;;;;;;5054120;28;20035;-69
2021/11/14 03:03:31;;;;;;;2.03;0.40;;;21.70;41.20;;;;;;5077314;28;20451;-70
2021/11/14 03:05:58;;;;;;;2.45;1.27;;;22.20;42.40;;;;;;5079483;28;20419;-66
2021/11/14 03:08:25;;;;;;;2.05;0.73;;;22.70;41.70;;;;;;5086283;28;20024;-72
2021/11/14 03:10:52;;;;;;;1.67;0.93;;;23.20;41.40;;;;;;5077559;28;20696;-71
2021/11/14 03:13:21;;;;;;;1.50;0.57;;;23.40;40.40;;;;;;5080619;28;20027;-70
2021/11/14 03:15:54;;;;;;;1.25;0.60;;;23.50;38.40;;;;;;5079546;28;20450;-72
2021/11/14 03:18:21;;;;;;;2.85;0.60;;;23.20;39.50;;;;;;5079453;28;20016;-67
2021/11/14 03:20:52;;;;;;;2.17;1.05;;;23.70;40.50;;;;;;5082762;28;20351;-72
2021/11/14 03:23:21;;;;;;;1.80;0.70;;;24.30;38.60;;;;;;5064167;28;20036;-69
2021/11/14 03:25:49;;;;;;;3.20;0.95;;;24.60;39.00;;;;;;5077368;28;20028;-72
2021/11/14 03:28:17;;;;;;;0.93;0.40;;;25.00;38.20;;;;;;5081696;28;20028;-68
2021/11/14 03:30:45;;;;;;;1.58;0.80;;;25.40;37.30;;;;;;5079461;28;20020;-71
2021/11/14 03:33:14;;;;;;;2.28;0.55;;;25.50;37.50;;;;;;5083386;28;20048;-72
2021/11/14 03:36:01;;;;;;;2.15;1.23;;;25.80;36.60;;;;;;5079044;28;20028;-71
2021/11/14 03:38:56;;;;;;;1.80;1.40;;;25.20;37.20;;;;;;5083016;28;20118;-70
2021/11/14 03:41:28;;;;;;;3.63;1.42;;;24.60;38.10;;;;;;5073022;28;20047;-68
2021/11/14 03:43:55;;;;;;;1.30;0.80;;;24.50;38.50;;;;;;5075070;28;20538;-68
2021/11/14 03:46:23;;;;;;;0.73;0.57;;;24.50;39.60;;;;;;5076631;28;20115;-67
2021/11/14 03:48:52;;;;;;;1.02;0.32;;;24.20;38.10;;;;;;5079667;28;20056;-65
2021/11/14 03:51:22;;;;;;;1.17;0.32;;;23.80;38.80;;;;;;5074933;28;20425;-67
2021/11/14 03:53:53;;;;;;;1.60;0.30;;;24.50;38.70;;;;;;5075748;28;20059;-66
2021/11/14 03:56:21;;;;;;;6.60;3.13;;;24.80;38.80;;;;;;5081397;28;20038;-67
2021/11/14 03:58:48;;;;;;;2.75;1.30;;;25.00;38.00;;;;;;5075827;28;20046;-65
2021/11/14 04:01:20;;;;;;;2.50;0.93;;;25.20;38.40;;;;;;5074877;28;20032;-64
2021/11/14 04:03:50;;;;;;;1.80;0.70;;;25.60;37.10;;;;;;5078607;28;20074;-68
2021/11/14 04:06:17;;;;;;;3.05;1.48;;;25.00;37.00;;;;;;5080540;28;20060;-66
2021/11/14 04:08:44;;;;;;;3.40;1.20;;;24.40;38.00;;;;;;5079397;28;20574;-67
2021/11/14 04:11:11;;;;;;;1.40;0.80;;;23.80;38.30;;;;;;5077568;28;20548;-67
2021/11/14 04:13:38;;;;;;;0.80;0.50;;;24.10;39.50;;;;;;5079888;28;20069;-68
2021/11/14 04:16:08;;;;;;;4.75;1.83;;;24.20;38.80;;;;;;5073288;28;20032;-68
2021/11/14 04:18:36;;;;;;;1.52;0.90;;;23.80;37.50;;;;;;5077464;28;20031;-67
2021/11/14 04:21:04;;;;;;;1.65;1.02;;;23.60;38.60;;;;;;5055070;28;20188;-67
2021/11/14 04:23:31;;;;;;;2.22;1.25;;;23.60;39.00;;;;;;5076841;28;20080;-68
2021/11/14 04:25:58;;;;;;;1.58;0.68;;;23.90;38.20;;;;;;5059819;28;20156;-68
2021/11/14 04:28:25;;;;;;;1.63;0.70;;;23.40;37.80;;;;;;5078375;28;20028;-67
2021/11/14 04:30:52;;;;;;;2.42;1.05;;;22.90;38.30;;;;;;5080557;28;20108;-69
2021/11/14 04:33:20;;;;;;;1.27;0.40;;;23.10;39.70;;;;;;5081222;28;20017;-68
2021/11/14 04:35:49;;;;;;;2.53;0.70;;;23.00;38.00;;;;;;5070289;28;20069;-68
2021/11/14 04:38:16;;;;;;;1.60;1.13;;;22.30;39.30;;;;;;5072146;28;20024;-71
2021/11/14 04:40:44;;;;;;;2.65;0.77;;;22.20;40.40;;;;;;5081550;28;20028;-71
2021/11/14 04:43:13;;;;;;;1.95;0.90;;;22.20;39.70;;;;;;5082835;28;20542;-68
2021/11/14 04:45:41;;;;;;;0.90;0.52;;;21.90;40.80;;;;;;5074314;28;20460;-69
2021/11/14 04:48:08;;;;;;;1.58;0.60;;;21.70;41.10;;;;;;5075790;28;20027;-67
2021/11/14 04:50:36;;;;;;;2.45;0.77;;;22.00;42.20;;;;;;5019134;28;20042;-68
2021/11/14 04:53:05;;;;;;;1.30;0.80;;;22.20;41.40;;;;;;4997792;28;20022;-68
2021/11/14 04:55:34;;;;;;;1.40;0.47;;;22.00;41.90;;;;;;4977250;28;20190;-67
2021/11/14 04:58:03;;;;;;;2.20;0.30;;;21.90;42.10;;;;;;4980820;28;20084;-66
2021/11/14 05:00:46;;;;;;;2.22;0.63;;;21.50;42.00;;;;;;4978701;28;20115;-66
2021/11/14 05:03:12;;;;;;;;;;;21.60;43.20;;;;;;4980156;28;20454;-67
2021/11/14 05:05:41;;;;;;;2.70;0.70;;;21.70;43.40;;;;;;4977195;28;19910;-67
2021/11/14 05:08:09;;;;;;;1.60;0.50;;;21.60;43.70;;;;;;4976665;28;20045;-67
2021/11/14 05:10:37;;;;;;;1.55;0.65;;;21.50;44.40;;;;;;4979545;28;20034;-67
2021/11/14 05:13:05;;;;;;;1.17;0.65;;;21.50;44.80;;;;;;4981350;28;20109;-65
2021/11/14 05:15:33;;;;;;;3.30;0.70;;;22.50;44.60;;;;;;4976730;28;20117;-67
2021/11/14 05:18:00;;;;;;;3.28;0.77;;;23.20;40.90;;;;;;4976941;28;20030;-68
2021/11/14 05:20:27;;;;;;;1.98;0.52;;;23.10;40.40;;;;;;4980402;28;20038;-67
2021/11/14 05:22:54;;;;;;;0.88;0.80;;;23.20;39.90;;;;;;4980501;28;20023;-68
2021/11/14 05:25:22;;;;;;;2.58;0.50;;;23.20;40.50;;;;;;4979348;28;20077;-67
2021/11/14 05:27:49;;;;;;;1.30;0.90;;;23.40;40.70;;;;;;4978558;28;20429;-67
2021/11/14 05:30:16;;;;;;;1.70;0.68;;;23.60;41.50;;;;;;4976950;28;20025;-68
2021/11/14 05:32:43;;;;;;;3.55;0.85;;;23.90;39.90;;;;;;4977261;28;20035;-68
2021/11/14 05:35:12;;;;;;;2.28;0.85;;;23.70;39.80;;;;;;4977344;28;20022;-68
2021/11/14 05:37:39;;;;;;;1.80;0.63;;;23.40;41.00;;;;;;4979145;28;20122;-68
2021/11/14 05:40:08;;;;;;;2.25;1.00;;;23.60;40.70;;;;;;4980170;28;20034;-69
2021/11/14 05:42:35;;;;;;;2.20;0.80;;;23.70;41.50;;;;;;4974791;28;20109;-69
2021/11/14 05:45:03;;;;;;;6.15;3.80;;;23.90;41.00;;;;;;4976672;28;20027;-69
2021/11/14 05:47:30;;;;;;;1.10;0.57;;;24.40;40.70;;;;;;4973441;28;20026;-68
2021/11/14 05:49:57;;;;;;;0.82;0.50;;;24.30;39.00;;;;;;4977262;28;20492;-67
2021/11/14 05:52:24;;;;;;;0.98;0.63;;;24.20;40.00;;;;;;4981321;28;20109;-68
2021/11/14 05:54:51;;;;;;;0.98;0.40;;;24.40;39.10;;;;;;4992483;28;20178;-68
2021/11/14 05:57:18;;;;;;;5.28;2.92;;;24.00;40.00;;;;;;4996258;28;20045;-66
2021/11/14 06:07:31;;;;;;;1.58;0.77;;;22.70;42.10;;;;;;4998061;28;20129;-69
2021/11/14 06:10:00;;;;;;;2.00;0.60;;;22.30;43.10;;;;;;4999967;28;20014;-66
2021/11/14 06:12:28;;;;;;;1.23;0.60;;;21.70;42.60;;;;;;5002260;28;20532;-69
2021/11/14 06:14:56;;;;;;;1.75;0.43;;;21.50;44.00;;;;;;5003792;28;20029;-70
2021/11/14 06:17:23;;;;;;;1.52;0.50;;;21.20;44.10;;;;;;4992532;28;20034;-69
2021/11/14 06:19:51;;;;;;;3.63;0.75;;;21.00;44.20;;;;;;5002477;28;20037;-69
2021/11/14 06:22:19;;;;;;;1.17;0.45;;;20.80;47.00;;;;;;4998212;28;20556;-68
2021/11/14 06:24:46;;;;;;;1.55;0.35;;;20.40;48.20;;;;;;4998498;28;20976;-68
2021/11/14 06:27:14;;;;;;;2.50;0.22;;;20.10;50.20;;;;;;4997285;28;20034;-67
2021/11/14 06:29:41;;;;;;;2.30;0.45;;;19.80;51.80;;;;;;4999269;28;20548;-72
2021/11/14 06:32:08;;;;;;;1.10;0.38;;;19.70;52.60;;;;;;5003480;28;20038;-68
2021/11/14 06:34:36;;;;;;;1.45;0.50;;;19.80;52.40;;;;;;5000279;28;20050;-68
2021/11/14 06:37:04;;;;;;;1.23;0.63;;;20.00;52.70;;;;;;4989582;28;20041;-67
2021/11/14 06:39:31;;;;;;;0.77;0.30;;;20.40;52.30;;;;;;4997234;28;20108;-68
2021/11/14 06:41:58;;;;;;;1.42;0.43;;;20.80;51.30;;;;;;5001571;28;20094;-69
2021/11/14 06:44:25;;;;;;;0.68;0.20;;;20.90;52.10;;;;;;4997642;28;20419;-69
2021/11/14 06:46:54;;;;;;;0.70;0.40;;;20.80;52.50;;;;;;5003764;28;20483;-69
2021/11/14 06:49:20;;;;;;;0.40;0.40;;;20.30;53.30;;;;;;4998585;28;20034;-68
2021/11/14 06:51:47;;;;;;;2.85;0.30;;;20.00;53.80;;;;;;5000782;28;20343;-69
2021/11/14 06:54:14;;;;;;;1.40;0.30;;;19.60;54.80;;;;;;5015626;23;20544;-70
2021/11/14 06:56:41;;;;;;;1.55;0.55;;;19.30;55.20;;;;;;4967985;28;20116;-67
2021/11/14 06:59:08;;;;;;;1.05;0.60;;;19.00;56.00;;;;;;4979044;28;20564;-71
2021/11/14 07:01:36;;;;;;;1.02;0.50;;;18.90;57.10;;;;;;4974631;28;20022;-71
2021/11/14 07:04:03;;;;;;;0.38;0.20;;;18.80;57.10;;;;;;4973012;28;20026;-70
2021/11/14 07:06:30;;;;;;;0.90;0.40;;;18.70;57.30;;;;;;4974152;28;20090;-70
2021/11/14 07:08:57;;;;;;;1.77;0.80;;;18.50;58.10;;;;;;4978719;28;20061;-72
2021/11/14 07:11:24;;;;;;;0.30;0.30;;;18.30;58.20;;;;;;4973810;28;20023;-73
2021/11/14 07:13:51;;;;;;;0.75;0.43;;;18.20;58.90;;;;;;4980831;28;20504;-70
2021/11/14 07:16:18;;;;;;;3.25;0.45;;;18.30;59.40;;;;;;4975849;28;20217;-69
2021/11/14 07:18:45;;;;;;;0.60;0.30;;;18.40;58.70;;;;;;4966595;28;20077;-71
2021/11/14 07:21:12;;;;;;;0.93;0.60;;;18.40;58.90;;;;;;4976924;28;20054;-69
2021/11/14 07:23:39;;;;;;;0.88;0.60;;;18.50;59.00;;;;;;4975829;28;20035;-70
2021/11/14 07:26:06;;;;;;;0.82;0.50;;;18.40;59.10;;;;;;4979921;28;20086;-70
2021/11/14 07:28:33;;;;;;;1.60;0.98;;;18.50;59.50;;;;;;4975282;28;20062;-70
2021/11/14 07:31:00;;;;;;;1.17;0.70;;;18.50;60.10;;;;;;4980731;28;20504;-73
2021/11/14 07:33:27;;;;;;;1.88;0.75;;;18.50;60.00;;;;;;4972320;28;20026;-70
2021/11/14 07:35:54;;;;;;;1.33;0.40;;;18.40;60.00;;;;;;4970275;28;20030;-69
2021/11/14 07:38:21;;;;;;;2.88;0.77;;;18.40;59.80;;;;;;4979266;28;20088;-74
2021/11/14 07:40:48;;;;;;;2.97;1.10;;;18.40;59.90;;;;;;4974956;28;20497;-72
2021/11/14 07:43:16;;;;;;;1.10;0.50;;;18.30;60.30;;;;;;4980653;28;20520;-71
2021/11/14 07:45:43;;;;;;;1.33;0.70;;;18.30;60.00;;;;;;4975916;28;20018;-73
2021/11/14 07:48:10;;;;;;;2.10;1.10;;;18.70;59.40;;;;;;4973619;28;20411;-70
2021/11/14 07:50:39;;;;;;;0.95;0.40;;;19.60;58.00;;;;;;4981329;28;20023;-70
2021/11/14 07:53:07;;;;;;;2.08;0.32;;;20.50;53.60;;;;;;4974022;28;20030;-71
2021/11/14 07:55:35;;;;;;;1.45;0.55;;;20.30;54.10;;;;;;4974529;28;20082;-71
2021/11/14 07:58:05;;;;;;;0.82;0.47;;;19.90;54.70;;;;;;4974368;28;20026;-70
2021/11/14 08:00:37;;;;;;;1.20;0.60;;;19.40;55.50;;;;;;4979043;28;20054;-71
2021/11/14 08:03:04;;;;;;;1.85;1.17;;;18.90;56.50;;;;;;4977962;28;20034;-70
2021/11/14 08:05:32;;;;;;;2.53;1.35;;;18.50;56.30;;;;;;4971739;28;20142;-70
2021/11/14 08:07:59;;;;;;;1.05;0.35;;;18.30;57.30;;;;;;4975013;28;20489;-70
2021/11/14 08:10:27;;;;;;;1.77;0.73;;;18.20;56.60;;;;;;4971414;28;20441;-71
2021/11/14 08:12:53;;;;;;;2.13;0.68;;;18.10;57.60;;;;;;4976219;28;20018;-70
2021/11/14 08:15:21;;;;;;;1.92;0.45;;;18.00;56.80;;;;;;4977108;28;20038;-71
2021/11/14 08:17:49;;;;;;;4.15;3.05;;;18.00;57.60;;;;;;4970722;28;20065;-69
2021/11/14 08:20:16;;;;;;;2.85;1.13;;;17.90;58.60;;;;;;4977997;28;20049;-67
2021/11/14 08:22:44;;;;;;;1.73;1.20;;;17.90;56.70;;;;;;4980585;28;20029;-70
2021/11/14 08:25:13;;;;;;;1.70;0.88;;;17.80;56.20;;;;;;4976507;28;20042;-67
2021/11/14 08:27:40;;;;;;;0.73;0.52;;;17.70;57.20;;;;;;4977051;28;20520;-67
2021/11/14 08:30:13;;;;;;;0.45;0.32;;;17.40;55.80;;;;;;4978624;28;20032;-67
2021/11/14 08:32:40;;;;;;;0.68;0.57;;;17.30;57.00;;;;;;4980851;28;20109;-68
2021/11/14 08:35:09;;;;;;;1.33;0.70;;;17.10;57.20;;;;;;4977700;28;20113;-67
2021/11/14 08:37:37;;;;;;;0.75;0.60;;;17.00;57.40;;;;;;4973991;28;20035;-67
2021/11/14 08:40:06;;;;;;;0.32;0.30;;;16.90;57.40;;;;;;4960492;28;20031;-69
2021/11/14 08:42:33;;;;;;;1.45;0.60;;;16.80;57.80;;;;;;4976005;28;20027;-67
2021/11/14 08:45:01;;;;;;;0.30;0.30;;;16.80;58.00;;;;;;4977074;28;20116;-67
2021/11/14 08:47:28;;;;;;;0.20;0.20;;;16.70;56.70;;;;;;4973480;28;20066;-67
2021/11/14 08:49:55;;;;;;;1.10;0.35;;;16.50;57.00;;;;;;4977134;28;20022;-69
2021/11/14 08:52:22;;;;;;;0.20;0.20;;;16.50;58.10;;;;;;4979184;28;20023;-69
2021/11/14 08:54:50;;;;;;;0.38;0.10;;;16.50;59.00;;;;;;4982130;28;20520;-69
2021/11/14 08:57:18;;;;;;;0.47;0.40;;;16.30;57.30;;;;;;4975395;28;20049;-69
2021/11/14 08:59:47;;;;;;;2.40;0.28;;;16.30;58.20;;;;;;4981302;28;20034;-69
2021/11/14 09:02:16;;;;;;;0.30;0.20;;;16.30;57.40;;;;;;4975450;28;20511;-69
2021/11/14 09:04:43;;;;;;;0.20;0.20;;;16.20;57.50;;;;;;4973420;28;20440;-67
2021/11/14 09:07:11;;;;;;;0.80;0.32;;;16.20;57.10;;;;;;4973302;28;20030;-68
2021/11/14 09:09:38;;;;;;;0.30;0.30;;;16.20;59.40;;;;;;4982733;28;20645;-69
2021/11/14 09:12:05;;;;;;;0.30;0.20;;;16.20;59.50;;;;;;4977452;28;20054;-69
2021/11/14 09:14:33;;;;;;;0.68;0.35;;;16.10;59.20;;;;;;4969283;28;20419;-69
2021/11/14 09:17:00;;;;;;;0.35;0.30;;;16.10;59.20;;;;;;4977120;28;20560;-71
2021/11/14 09:19:27;;;;;;;1.08;0.40;;;16.00;59.50;;;;;;4977785;28;20038;-68
2021/11/14 09:21:54;;;;;;;1.10;0.40;;;16.00;58.90;;;;;;4977634;28;20026;-69
2021/11/14 09:24:21;;;;;;;0.65;0.40;;;15.90;59.70;;;;;;4969732;28;20117;-69
2021/11/14 09:26:48;;;;;;;0.43;0.30;;;15.70;59.90;;;;;;4974314;28;20528;-68
2021/11/14 09:29:15;;;;;;;0.75;0.50;;;15.70;60.90;;;;;;4982814;28;20037;-68
2021/11/14 09:31:42;;;;;;;2.30;1.35;;;15.70;60.30;;;;;;4975809;28;20018;-66
2021/11/14 09:34:10;;;;;;;1.88;0.93;;;15.70;61.40;;;;;;4973458;28;20579;-68
2021/11/14 09:36:38;;;;;;;2.10;1.52;;;15.70;60.90;;;;;;4970679;28;20351;-68
2021/11/14 09:39:10;;;;;;;2.08;1.00;;;15.60;60.90;;;;;;4975012;28;20031;-69
2021/11/14 09:41:45;;;;;;;0.60;0.45;;;15.50;61.40;;;;;;4978663;28;20026;-68
2021/11/14 09:44:14;;;;;;;1.40;0.60;;;15.50;62.10;;;;;;4971030;28;20042;-68
2021/11/14 09:46:50;;;;;;;2.17;0.85;;;15.40;61.30;;;;;;4970452;28;20030;-69
2021/11/14 09:49:20;;;;;;;0.98;0.60;;;15.20;62.10;;;;;;4969804;28;20628;-69
2021/11/14 09:51:49;;;;;;;2.13;1.50;;;15.10;63.40;;;;;;4975746;28;20157;-69
2021/11/14 09:54:18;;;;;;;0.40;0.40;;;15.00;63.80;;;;;;4969537;28;20229;-69
2021/11/14 09:56:46;;;;;;;1.05;0.38;;;15.00;64.90;;;;;;4970772;28;20026;-66
2021/11/14 09:59:14;;;;;;;0.25;0.25;;;15.00;65.40;;;;;;4965401;28;20027;-68
2021/11/14 10:01:42;;;;;;;3.65;2.58;;;14.80;66.00;;;;;;4970294;28;20122;-67
2021/11/14 10:04:09;;;;;;;3.28;1.65;;;14.80;66.80;;;;;;4973247;28;20474;-68
2021/11/14 10:06:36;;;;;;;1.13;0.32;;;14.80;67.50;;;;;;4978990;28;20441;-68
2021/11/14 10:09:05;;;;;;;1.67;0.30;;;14.70;68.60;;;;;;4971730;28;20797;-69
2021/11/14 10:11:36;;;;;;;0.40;0.30;;;14.60;69.40;;;;;;4973559;28;20030;-68
2021/11/14 10:14:04;;;;;;;0.63;0.50;;;14.60;70.10;;;;;;4974244;28;20032;-69
2021/11/14 10:16:33;;;;;;;1.05;0.60;;;14.50;70.30;;;;;;4975700;28;20285;-66
2021/11/14 10:19:06;;;;;;;2.42;0.85;;;14.40;70.90;;;;;;4978788;28;20085;-70
2021/11/14 10:21:35;;;;;;;4.85;2.55;;;14.40;70.80;;;;;;4978042;28;20026;-68
2021/11/14 10:24:05;;;;;;;3.10;0.90;;;14.40;70.60;;;;;;4976040;28;20031;-68
2021/11/14 10:26:34;;;;;;;0.40;0.30;;;14.40;70.90;;;;;;4973530;28;20124;-68
2021/11/14 10:29:04;;;;;;;0.52;0.30;;;14.30;70.70;;;;;;4979116;28;20552;-70
2021/11/14 10:31:32;;;;;;;0.45;0.35;;;14.30;70.70;;;;;;4976495;28;20027;-70
2021/11/14 10:34:00;;;;;;;2.75;0.50;;;14.30;71.10;;;;;;4976656;28;20378;-68
2021/11/14 10:36:30;;;;;;;1.63;0.88;;;14.20;72.50;;;;;;4977822;28;20026;-68
2021/11/14 10:39:15;;;;;;;2.75;2.00;;;14.20;72.60;;;;;;4980187;28;20368;-68
2021/11/14 10:41:47;;;;;;;0.57;0.35;;;14.10;73.30;;;;;;4964038;28;20053;-69
2021/11/14 10:44:17;;;;;;;0.90;0.70;;;14.10;73.20;;;;;;4966981;28;20042;-69
2021/11/14 10:46:46;;;;;;;1.85;0.35;;;14.10;73.00;;;;;;4975792;28;20035;-70
2021/11/14 10:49:13;;;;;;;0.30;0.30;;;14.10;72.60;;;;;;4972404;28;20031;-68
2021/11/14 10:51:40;;;;;;;0.65;0.50;;;14.10;73.10;;;;;;4975250;28;20057;-70
2021/11/14 10:54:10;;;;;;;2.28;0.30;;;14.10;72.10;;;;;;4976710;28;20529;-70
2021/11/14 10:56:38;;;;;;;0.68;0.20;;;14.10;72.50;;;;;;4976792;28;20062;-69
2021/11/14 10:59:07;;;;;;;1.48;0.50;;;14.00;74.30;;;;;;4975736;28;20347;-69
2021/11/14 11:01:34;;;;;;;1.45;0.60;;;13.90;74.30;;;;;;4973132;28;20370;-69
2021/11/14 11:04:10;;;;;;;0.70;0.55;;;13.80;74.00;;;;;;4974231;28;20022;-69
2021/11/14 11:06:37;;;;;;;0.60;0.30;;;13.80;74.60;;;;;;4971311;28;20063;-70
2021/11/14 11:09:07;;;;;;;0.32;0.30;;;13.70;74.80;;;;;;4974712;28;20239;-69
2021/11/14 11:11:44;;;;;;;0.40;0.40;;;13.60;75.20;;;;;;4978372;28;20162;-69
2021/11/14 11:14:12;;;;;;;0.25;0.17;;;13.60;75.10;;;;;;4971308;28;20023;-68
2021/11/14 11:16:39;;;;;;;0.50;0.32;;;13.60;74.90;;;;;;4973983;28;20088;-69
2021/11/14 11:19:14;;;;;;;1.15;0.30;;;13.60;74.30;;;;;;4981642;28;20154;-68
2021/11/14 11:21:46;;;;;;;0.50;0.20;;;13.50;73.90;;;;;;4975914;28;20022;-68
2021/11/14 11:24:18;;;;;;;0.20;0.20;;;13.70;72.00;;;;;;4979208;28;20031;-68
2021/11/14 11:27:00;;;;;;;1.67;0.35;;;13.80;70.10;;;;;;4973315;28;20486;-68
2021/11/14 11:29:28;;;;;;;0.30;0.30;;;13.80;71.00;;;;;;4976017;28;20873;-68
2021/11/14 11:31:56;;;;;;;3.33;0.30;;;13.80;71.20;;;;;;4981647;28;20331;-68
2021/11/14 11:34:24;;;;;;;0.80;0.38;;;13.80;70.80;;;;;;4978683;28;20023;-69
2021/11/14 11:36:52;;;;;;;0.52;0.32;;;13.80;71.40;;;;;;4974755;28;20045;-69
2021/11/14 11:39:20;;;;;;;0.30;0.30;;;13.80;70.60;;;;;;4971655;28;20039;-68
2021/11/14 11:41:49;;;;;;;0.30;0.30;;;13.90;69.10;;;;;;4980697;28;20129;-68
2021/11/14 11:44:18;;;;;;;1.00;0.20;;;13.90;68.90;;;;;;4975815;28;20091;-68
2021/11/14 11:46:50;;;;;;;0.10;0.10;;;14.00;67.40;;;;;;4976946;28;20543;-68
2021/11/14 11:49:24;;;;;;;1.07;0.33;;;14.00;67.50;;;;;;4976949;28;20027;-69
2021/11/14 11:51:56;;;;;;;1.23;0.10;;;14.00;66.80;;;;;;4975034;28;20026;-69
2021/11/14 11:54:26;;;;;;;0.43;0.20;;;13.90;67.50;;;;;;4976600;28;20038;-69
2021/11/14 11:56:56;;;;;;;0.70;0.20;;;13.90;67.90;;;;;;4972485;28;20306;-69
2021/11/14 11:59:30;;;;;;;1.15;0.30;;;13.90;67.90;;;;;;4977895;28;20775;-70
2021/11/14 12:02:06;;;;;;;0.60;0.20;;;14.00;68.10;;;;;;4975609;28;20058;-69
2021/11/14 12:04:40;;;;;;;0.40;0.22;;;14.00;68.10;;;;;;4977417;28;20031;-69
2021/11/14 12:07:18;;;;;;;1.85;1.23;;;14.00;67.90;;;;;;4979268;28;20119;-69
2021/11/14 12:09:49;;;;;;;1.40;0.90;;;14.10;67.40;;;;;;4978076;28;20065;-69
2021/11/14 12:12:29;;;;;;;1.63;0.90;;;14.10;66.90;;;;;;4980346;28;20056;-69
2021/11/14 12:15:19;;;;;;;2.53;1.05;;;14.10;67.00;;;;;;4974898;28;20529;-69
2021/11/14 12:18:06;;;;;;;0.30;0.30;;;14.30;65.40;;;;;;4973879;28;20030;-69
2021/11/14 12:20:42;;;;;;;0.38;0.30;;;14.30;65.40;;;;;;4978820;28;20295;-69
2021/11/14 12:23:23;;;;;;;0.32;0.20;;;14.40;65.00;;;;;;4981133;28;20027;-70
2021/11/14 12:25:57;;;;;;;0.88;0.43;;;14.30;65.30;;;;;;4986404;28;20038;-69
2021/11/14 12:28:32;;;;;;;1.27;0.85;;;14.20;66.00;;;;;;4975245;28;20437;-69
2021/11/14 12:31:06;;;;;;;1.17;0.65;;;14.20;66.90;;;;;;4974886;28;20074;-69
2021/11/14 12:33:45;;;;;;;2.03;0.30;;;14.20;66.10;;;;;;4978540;28;20095;-68
2021/11/14 12:36:40;;;;;;;1.10;0.20;;;14.20;66.50;;;;;;4983926;28;20478;-69
2021/11/14 12:39:23;;;;;;;1.80;0.70;;;14.20;66.50;;;;;;4985069;28;20026;-69
2021/11/14 12:42:05;;;;;;;0.35;0.35;;;14.20;66.70;;;;;;4980718;28;20030;-69
2021/11/14 12:44:41;;;;;;;0.82;0.20;;;14.10;67.00;;;;;;4977763;28;20141;-68
2021/11/14 12:47:46;;;;;;;0.55;0.30;;;14.10;67.00;;;;;;4980552;28;20045;-69
2021/11/14 12:50:25;;;;;;;0.80;0.20;;;14.20;66.40;;;;;;4978600;28;20030;-69
2021/11/14 12:53:25;;;;;;;0.43;0.20;;;14.30;66.40;;;;;;4973875;28;20041;-69
2021/11/14 12:55:53;;;;;;;0.65;0.40;;;14.20;66.10;;;;;;4981676;28;20046;-69
2021/11/14 12:58:21;;;;;;;0.75;0.35;;;14.20;66.10;;;;;;4983769;28;20030;-69
2021/11/14 13:00:56;;;;;;;0.45;0.20;;;14.20;64.10;;;;;;4981334;28;20129;-70
2021/11/14 13:03:30;;;;;;;1.35;0.20;;;14.30;63.80;;;;;;4974358;28;20031;-69
2021/11/14 13:06:01;;;;;;;0.47;0.22;;;14.20;64.10;;;;;;4971774;28;20486;-69